createdAt,value
2023-06-27T00:00:42.494Z,100803.58
2023-06-27T00:03:31.282Z,100819.69
2023-06-27T00:06:02.185Z,100835.74
2023-06-27T00:08:30.689Z,100847.52
2023-06-27T00:10:59.881Z,100862.05
2023-06-27T00:13:30.313Z,100878.88
2023-06-27T00:16:01.615Z,100888.71
2023-06-27T00:18:35.969Z,100909.30
2023-06-27T00:21:06.538Z,100922.02
2023-06-27T00:23:35.240Z,100940.51
2023-06-27T00:26:04.808Z,100958.81
2023-06-27T00:29:49.818Z,100969.80
2023-06-27T00:32:18.531Z,100990.81
2023-06-27T00:34:47.347Z,101000.29
2023-06-27T00:37:15.958Z,101011.75
2023-06-27T00:39:44.612Z,101038.77
2023-06-27T00:42:13.303Z,101048.84
2023-06-27T00:44:42.052Z,101058.35
2023-06-27T00:47:10.855Z,101068.27
2023-06-27T00:49:40.122Z,101075.23
2023-06-27T00:52:09.326Z,101080.98
2023-06-27T00:54:38.430Z,101093.81
2023-06-27T00:57:08.025Z,101103.96
2023-06-27T00:59:39.143Z,101121.36
2023-06-27T01:02:10.169Z,101137.83
2023-06-27T01:04:40.717Z,101145.48
2023-06-27T01:07:15.198Z,101162.44
2023-06-27T01:09:52.130Z,101180.84
2023-06-27T01:12:22.671Z,101185.41
2023-06-27T01:14:53.908Z,101193.83
2023-06-27T01:17:23.697Z,101214.61
2023-06-27T01:19:54.164Z,101227.77
2023-06-27T01:22:34.439Z,101233.91
2023-06-27T01:25:04.800Z,101246.72
2023-06-27T01:27:47.717Z,101265.30
2023-06-27T01:30:19.247Z,101277.98
2023-06-27T01:32:55.031Z,101290.26
2023-06-27T01:35:34.562Z,101301.16
2023-06-27T01:38:15.373Z,101317.52
2023-06-27T01:40:46.664Z,101320.77
2023-06-27T01:43:15.778Z,101330.05
2023-06-27T01:45:45.716Z,101352.15
2023-06-27T01:48:14.799Z,101368.26
2023-06-27T01:50:43.802Z,101377.36
2023-06-27T01:53:12.348Z,101386.61
2023-06-27T01:55:41.362Z,101399.38
2023-06-27T01:58:10.203Z,101422.30
2023-06-27T02:00:39.528Z,101438.52
2023-06-27T02:03:09.265Z,101461.41
2023-06-27T02:05:39.034Z,101478.96
2023-06-27T02:08:07.986Z,101492.48
2023-06-27T02:10:37.289Z,101493.73
2023-06-27T02:13:06.611Z,101510.13
2023-06-27T02:15:35.532Z,101525.67
2023-06-27T02:18:05.833Z,101543.80
2023-06-27T02:20:34.834Z,101547.40
2023-06-27T02:23:03.558Z,101559.23
2023-06-27T02:25:32.750Z,101576.73
2023-06-27T02:28:07.246Z,101580.25
2023-06-27T02:30:36.030Z,101599.79
2023-06-27T02:33:04.857Z,101617.11
2023-06-27T02:35:34.495Z,101633.17
2023-06-27T02:38:03.671Z,101647.11
2023-06-27T02:40:33.146Z,101679.77
2023-06-27T02:43:01.701Z,101699.23
2023-06-27T02:45:30.556Z,101719.86
2023-06-27T02:48:00.237Z,101734.58
2023-06-27T02:50:28.957Z,101758.49
2023-06-27T02:52:58.235Z,101765.05
2023-06-27T02:55:27.934Z,101791.60
2023-06-27T02:57:56.517Z,101810.42
2023-06-27T03:00:25.342Z,101824.58
2023-06-27T03:02:54.060Z,101842.77
2023-06-27T03:05:22.801Z,101859.30
2023-06-27T03:07:51.893Z,101883.34
2023-06-27T03:10:20.603Z,101899.48
2023-06-27T03:12:49.266Z,101914.95
2023-06-27T03:15:17.849Z,101936.76
2023-06-27T03:17:46.614Z,101962.41
2023-06-27T03:20:15.407Z,101984.55
2023-06-27T03:22:45.611Z,102006.10
2023-06-27T03:25:15.007Z,102029.75
2023-06-27T03:27:47.883Z,102056.19
2023-06-27T03:30:16.704Z,102077.36
2023-06-27T03:32:46.790Z,102100.47
2023-06-27T03:35:15.740Z,102131.14
2023-06-27T03:37:44.866Z,102149.64
2023-06-27T03:40:13.479Z,102179.52
2023-06-27T03:42:43.323Z,102218.75
2023-06-27T03:45:12.005Z,102250.20
2023-06-27T03:47:40.703Z,102278.60
2023-06-27T03:50:09.574Z,102314.85
2023-06-27T03:52:38.178Z,102347.58
2023-06-27T03:55:07.618Z,102374.58
2023-06-27T03:57:36.469Z,102407.76
2023-06-27T04:00:08.869Z,102440.87
2023-06-27T04:02:38.030Z,102467.54
2023-06-27T04:05:07.992Z,102499.86
2023-06-27T04:07:37.531Z,102525.11
2023-06-27T04:10:06.806Z,102556.90
2023-06-27T04:12:35.458Z,102583.85
2023-06-27T04:15:04.964Z,102631.34
2023-06-27T04:17:34.494Z,102690.55
2023-06-27T04:20:03.709Z,102744.08
2023-06-27T04:22:32.794Z,102782.09
2023-06-27T04:25:02.017Z,102831.91
2023-06-27T04:27:31.588Z,102894.23
2023-06-27T04:30:00.905Z,102900.10
2023-06-27T04:32:30.027Z,102912.30
2023-06-27T04:34:58.982Z,102953.64
2023-06-27T04:37:28.171Z,103012.51
2023-06-27T04:39:57.141Z,103095.91
2023-06-27T04:42:26.457Z,103185.73
2023-06-27T04:44:57.245Z,103271.52
2023-06-27T04:47:25.951Z,103365.52
2023-06-27T04:49:55.214Z,103444.96
2023-06-27T04:52:24.046Z,103521.80
2023-06-27T04:54:55.364Z,103593.73
2023-06-27T04:57:24.546Z,103637.73
2023-06-27T04:59:53.707Z,103690.29
2023-06-27T05:02:22.628Z,103734.77
2023-06-27T05:04:51.723Z,103754.52
2023-06-27T05:07:21.917Z,103778.02
2023-06-27T05:09:50.676Z,103791.38
2023-06-27T05:12:19.392Z,103798.90
2023-06-27T05:14:48.193Z,103824.88
2023-06-27T05:17:16.872Z,103845.69
2023-06-27T05:19:46.084Z,103865.23
2023-06-27T05:22:14.982Z,103881.45
2023-06-27T05:24:43.692Z,103888.11
2023-06-27T05:27:12.512Z,103922.81
2023-06-27T05:29:41.395Z,103945.09
2023-06-27T05:32:11.293Z,103962.13
2023-06-27T05:34:40.042Z,103968.16
2023-06-27T05:37:08.568Z,103952.52
2023-06-27T05:39:37.753Z,103927.23
2023-06-27T05:42:06.455Z,103875.64
2023-06-27T05:44:35.156Z,103825.86
2023-06-27T05:47:04.717Z,103814.35
2023-06-27T05:49:33.350Z,103834.76
2023-06-27T05:52:01.999Z,103848.31
2023-06-27T05:54:31.219Z,103841.89
2023-06-27T05:57:00.570Z,103826.80
2023-06-27T05:59:29.662Z,103850.35
2023-06-27T06:01:58.974Z,103902.54
2023-06-27T06:04:27.868Z,103922.33
2023-06-27T06:06:57.207Z,103939.98
2023-06-27T06:09:27.060Z,103981.23
2023-06-27T06:11:55.953Z,103989.75
2023-06-27T06:14:25.248Z,103992.77
2023-06-27T06:16:55.051Z,104033.11
2023-06-27T06:19:24.130Z,104051.94
2023-06-27T06:21:52.866Z,104111.05
2023-06-27T06:24:22.119Z,104215.23
2023-06-27T06:26:57.022Z,104236.92
2023-06-27T06:29:25.884Z,104168.95
2023-06-27T06:31:54.705Z,104124.05
2023-06-27T06:34:23.513Z,104136.13
2023-06-27T06:36:53.111Z,104144.35
2023-06-27T06:39:22.479Z,104138.09
2023-06-27T06:41:51.213Z,104156.69
2023-06-27T06:44:20.112Z,104112.77
2023-06-27T06:46:48.834Z,104102.38
2023-06-27T06:49:17.563Z,104145.80
2023-06-27T06:51:46.359Z,104271.34
2023-06-27T06:54:15.055Z,104357.05
2023-06-27T06:56:44.806Z,104432.92
2023-06-27T06:59:14.659Z,104524.92
2023-06-27T07:01:43.413Z,104635.49
2023-06-27T07:04:12.202Z,104639.29
2023-06-27T07:06:40.973Z,104553.20
2023-06-27T07:09:09.816Z,104483.27
2023-06-27T07:11:38.726Z,104538.84
2023-06-27T07:14:07.366Z,104576.41
2023-06-27T07:16:36.055Z,104563.36
2023-06-27T07:19:04.776Z,104649.34
2023-06-27T07:21:34.474Z,104644.14
2023-06-27T07:24:03.563Z,104637.15
2023-06-27T07:26:33.742Z,104735.80
2023-06-27T07:29:03.050Z,104796.77
2023-06-27T07:31:31.838Z,104865.48
2023-06-27T07:34:00.565Z,104867.92
2023-06-27T07:36:29.827Z,104897.15
2023-06-27T07:38:59.959Z,104789.34
2023-06-27T07:41:30.470Z,104689.95
2023-06-27T07:43:59.026Z,104635.03
2023-06-27T07:46:27.693Z,104734.27
2023-06-27T07:49:00.685Z,104823.75
2023-06-27T07:51:29.489Z,104876.40
2023-06-27T07:53:58.487Z,104874.02
2023-06-27T07:56:27.401Z,104754.93
2023-06-27T07:58:56.450Z,104571.64
2023-06-27T08:01:25.795Z,104434.33
2023-06-27T08:03:54.523Z,104324.96
2023-06-27T08:06:23.686Z,104055.84
2023-06-27T08:08:52.586Z,103926.43
2023-06-27T08:11:22.533Z,103907.92
2023-06-27T08:13:51.764Z,103844.13
2023-06-27T08:16:20.509Z,103827.50
2023-06-27T08:18:49.407Z,103384.48
2023-06-27T08:21:18.577Z,103579.75
2023-06-27T08:23:47.478Z,103254.83
2023-06-27T08:26:17.168Z,103134.27
2023-06-27T08:28:47.189Z,103083.09
2023-06-27T08:32:12.017Z,102979.31
2023-06-27T08:34:41.404Z,102452.70
2023-06-27T08:37:11.130Z,102532.42
2023-06-27T08:39:40.732Z,102418.41
2023-06-27T08:42:09.813Z,102244.98
2023-06-27T08:44:38.563Z,102196.17
2023-06-27T08:47:09.718Z,102254.84
2023-06-27T08:49:43.343Z,102291.57
2023-06-27T08:52:18.075Z,102268.65
2023-06-27T08:54:54.317Z,102135.08
2023-06-27T08:57:31.145Z,101968.38
2023-06-27T09:00:10.693Z,101862.27
2023-06-27T09:02:41.304Z,101783.52
2023-06-27T09:05:11.280Z,101678.54
2023-06-27T09:07:40.356Z,101655.88
2023-06-27T09:10:09.945Z,101588.43
2023-06-27T09:12:39.939Z,101521.71
2023-06-27T09:15:09.503Z,101435.90
2023-06-27T09:17:40.252Z,101342.87
2023-06-27T09:20:10.160Z,101250.08
2023-06-27T09:22:40.798Z,101175.77
2023-06-27T09:25:21.359Z,101125.35
2023-06-27T09:27:53.216Z,101102.20
2023-06-27T09:30:25.001Z,101113.05
2023-06-27T09:32:58.498Z,101127.89
2023-06-27T09:40:39.635Z,101152.96
2023-06-27T09:43:09.560Z,101141.67
2023-06-27T09:45:38.858Z,101081.29
2023-06-27T09:48:12.365Z,101027.23
2023-06-27T09:50:41.222Z,100990.27
2023-06-27T09:53:10.922Z,100929.10
2023-06-27T09:55:47.318Z,100911.00
2023-06-27T09:58:27.031Z,100866.36
2023-06-27T10:00:57.264Z,100843.29
2023-06-27T10:03:26.121Z,100837.98
2023-06-27T10:06:07.995Z,100892.06
2023-06-27T10:08:41.826Z,100911.13
2023-06-27T10:11:13.000Z,100892.27
2023-06-27T10:13:43.390Z,100878.85
2023-06-27T10:16:13.333Z,100872.91
2023-06-27T10:18:42.169Z,100873.13
2023-06-27T10:21:12.637Z,100877.08
2023-06-27T10:23:43.832Z,100884.91
2023-06-27T10:26:13.050Z,100924.35
2023-06-27T10:28:41.967Z,100983.85
2023-06-27T10:31:10.770Z,101061.35
2023-06-27T10:33:43.619Z,101112.95
2023-06-27T10:36:12.586Z,101104.97
2023-06-27T10:38:42.443Z,101058.52
2023-06-27T10:41:13.604Z,101034.75
2023-06-27T10:43:48.521Z,101025.98
2023-06-27T10:46:28.070Z,101015.27
2023-06-27T10:49:01.174Z,101026.04
2023-06-27T10:51:43.167Z,101057.42
2023-06-27T10:54:13.388Z,101079.86
2023-06-27T10:56:47.079Z,101080.77
2023-06-27T10:59:21.212Z,101083.02
2023-06-27T11:02:04.536Z,100806.23
2023-06-27T11:04:42.777Z,100906.45
2023-06-27T11:07:20.466Z,100954.68
2023-06-27T11:09:57.088Z,100865.23
2023-06-27T11:12:34.550Z,100790.15
2023-06-27T11:15:04.109Z,100736.94
2023-06-27T11:17:37.297Z,100704.79
2023-06-27T11:20:09.607Z,100686.86
2023-06-27T11:22:39.233Z,100687.28
2023-06-27T11:25:16.063Z,100691.23
2023-06-27T11:27:47.047Z,100693.58
2023-06-27T11:30:17.994Z,100726.23
2023-06-27T11:32:46.855Z,100746.11
2023-06-27T11:35:16.117Z,100766.67
2023-06-27T11:37:45.040Z,100767.02
2023-06-27T11:40:20.094Z,100746.70
2023-06-27T11:42:49.548Z,100747.17
2023-06-27T11:45:18.855Z,100729.89
2023-06-27T11:47:47.973Z,100737.76
2023-06-27T11:50:16.979Z,100763.15
2023-06-27T11:52:48.816Z,100759.88
2023-06-27T11:55:17.698Z,100752.54
2023-06-27T11:57:53.193Z,100740.50
2023-06-27T12:00:30.563Z,100711.40
2023-06-27T12:03:07.807Z,100687.16
2023-06-27T12:05:37.049Z,100662.75
2023-06-27T12:08:09.253Z,100641.36
2023-06-27T12:10:53.809Z,100636.10
2023-06-27T12:13:23.036Z,100616.59
2023-06-27T12:15:51.922Z,100595.59
2023-06-27T12:18:28.754Z,100564.13
2023-06-27T12:20:58.924Z,100536.46
2023-06-27T12:23:33.031Z,100516.05
2023-06-27T12:26:01.854Z,100501.15
2023-06-27T12:28:57.819Z,100482.29
2023-06-27T12:31:27.848Z,100477.38
2023-06-27T12:33:59.094Z,100468.08
2023-06-27T12:36:29.957Z,100467.42
2023-06-27T12:38:58.853Z,100461.05
2023-06-27T12:41:35.189Z,100451.33
2023-06-27T12:44:04.398Z,100446.36
2023-06-27T12:46:35.568Z,100452.23
2023-06-27T12:49:04.452Z,100463.81
2023-06-27T12:51:33.429Z,100469.36
2023-06-27T12:54:02.392Z,100467.95
2023-06-27T12:56:31.241Z,100470.73
2023-06-27T12:59:00.083Z,100467.91
2023-06-27T13:01:36.046Z,100468.21
2023-06-27T13:04:05.177Z,100469.88
2023-06-27T13:06:34.528Z,100470.09
2023-06-27T13:09:03.432Z,100474.69
2023-06-27T13:11:32.264Z,100478.70
2023-06-27T13:14:01.699Z,100484.14
2023-06-27T13:16:30.770Z,100482.94
2023-06-27T13:19:00.237Z,100479.05
2023-06-27T13:21:29.528Z,100464.19
2023-06-27T13:23:58.895Z,100453.98
2023-06-27T13:26:28.715Z,100451.45
2023-06-27T13:29:23.510Z,100451.00
2023-06-27T13:31:52.526Z,100444.83
2023-06-27T13:34:21.985Z,100442.44
2023-06-27T13:36:51.624Z,100441.54
2023-06-27T13:39:20.865Z,100443.41
2023-06-27T13:41:50.045Z,100439.95
2023-06-27T13:44:18.738Z,100448.27
2023-06-27T13:46:47.545Z,100445.45
2023-06-27T13:49:16.225Z,100444.00
2023-06-27T13:51:45.032Z,100447.86
2023-06-27T13:54:14.040Z,100444.13
2023-06-27T13:56:42.821Z,100437.77
2023-06-27T13:59:11.557Z,100440.17
2023-06-27T14:01:40.768Z,100439.44
2023-06-27T14:04:10.355Z,100429.91
2023-06-27T14:06:39.291Z,100422.27
2023-06-27T14:09:09.891Z,100414.71
2023-06-27T14:11:39.009Z,100421.50
2023-06-27T14:14:07.758Z,100433.25
2023-06-27T14:16:36.712Z,100438.98
2023-06-27T14:19:07.116Z,100435.91
2023-06-27T14:21:38.514Z,100429.71
2023-06-27T14:24:07.958Z,100428.14
2023-06-27T14:26:37.570Z,100423.43
2023-06-27T14:29:06.345Z,100413.65
2023-06-27T14:31:35.664Z,100409.58
2023-06-27T14:34:05.442Z,100411.91
2023-06-27T14:36:34.952Z,100409.56
2023-06-27T14:39:04.251Z,100408.75
2023-06-27T14:41:33.576Z,100409.14
2023-06-27T14:44:04.008Z,100407.27
2023-06-27T14:46:33.084Z,100400.73
2023-06-27T14:49:02.216Z,100401.35
2023-06-27T14:51:31.137Z,100408.70
2023-06-27T14:54:00.422Z,100415.67
2023-06-27T14:56:29.366Z,100423.12
2023-06-27T14:58:58.185Z,100426.64
2023-06-27T15:01:57.502Z,100448.14
2023-06-27T15:04:27.497Z,100444.48
2023-06-27T15:06:56.829Z,100410.48
2023-06-27T15:09:26.123Z,100394.85
2023-06-27T15:11:55.188Z,100396.55
2023-06-27T15:14:24.327Z,100391.20
2023-06-27T15:16:53.211Z,100400.98
2023-06-27T15:19:22.276Z,100400.48
2023-06-27T15:21:51.153Z,100403.54
2023-06-27T15:24:20.172Z,100407.46
2023-06-27T15:27:14.441Z,100413.73
2023-06-27T15:29:43.301Z,100413.80
2023-06-27T15:32:12.402Z,100416.17
2023-06-27T15:34:43.520Z,100420.91
2023-06-27T15:37:13.188Z,100438.27
2023-06-27T15:39:42.163Z,100454.08
2023-06-27T15:42:11.100Z,100463.52
2023-06-27T15:44:40.283Z,100477.16
2023-06-27T15:49:41.281Z,100500.67
2023-06-27T15:52:10.375Z,100509.89
2023-06-27T15:54:39.308Z,100527.44
2023-06-27T15:57:08.206Z,100541.84
2023-06-27T15:59:37.065Z,100554.48
2023-06-27T16:02:06.141Z,100572.71
2023-06-27T16:04:35.490Z,100587.88
2023-06-27T16:07:04.481Z,100594.80
2023-06-27T16:09:34.123Z,100606.67
2023-06-27T16:12:03.308Z,100615.90
2023-06-27T16:14:32.055Z,100623.66
2023-06-27T16:17:00.923Z,100636.83
2023-06-27T16:19:30.423Z,100649.08
2023-06-27T16:21:59.161Z,100660.63
2023-06-27T16:24:27.980Z,100669.20
2023-06-27T16:26:57.269Z,100679.98
2023-06-27T16:29:26.134Z,100684.59
2023-06-27T16:31:55.065Z,100694.35
2023-06-27T16:34:23.988Z,100700.30
2023-06-27T16:36:52.729Z,100701.73
2023-06-27T16:39:21.728Z,100702.61
2023-06-27T16:41:50.813Z,100698.29
2023-06-27T16:44:19.872Z,100701.92
2023-06-27T16:46:49.950Z,100705.67
2023-06-27T16:49:19.125Z,100720.61
2023-06-27T16:51:48.052Z,100721.39
2023-06-27T16:54:19.293Z,100733.94
2023-06-27T16:56:48.224Z,100745.98
2023-06-27T16:59:17.897Z,100753.23
2023-06-27T17:01:50.399Z,100772.66
2023-06-27T17:04:21.148Z,100777.45
2023-06-27T17:06:50.569Z,100791.79
2023-06-27T17:09:19.576Z,100796.80
2023-06-27T17:11:49.010Z,100808.40
2023-06-27T17:14:17.983Z,100816.69
2023-06-27T17:16:47.325Z,100824.77
2023-06-27T17:19:16.799Z,100831.79
2023-06-27T17:21:45.839Z,100836.60
2023-06-27T17:24:14.773Z,100846.09
2023-06-27T17:26:44.331Z,100852.34
2023-06-27T17:29:14.271Z,100849.56
2023-06-27T17:31:43.329Z,100853.75
2023-06-27T17:34:12.465Z,100857.84
2023-06-27T17:36:43.267Z,100855.39
2023-06-27T17:39:13.829Z,100859.73
2023-06-27T17:41:43.758Z,100863.94
2023-06-27T17:44:13.269Z,100863.34
2023-06-27T17:46:42.418Z,100872.76
2023-06-27T17:49:11.676Z,100879.71
2023-06-27T17:51:41.139Z,100888.11
2023-06-27T17:54:10.928Z,100887.88
2023-06-27T17:56:40.563Z,100893.70
2023-06-27T17:59:09.847Z,100891.52
2023-06-27T18:01:39.541Z,100896.73
2023-06-27T18:04:09.762Z,100895.91
2023-06-27T18:06:40.459Z,100898.20
2023-06-27T18:09:10.092Z,100906.16
2023-06-27T18:11:42.606Z,100906.55
2023-06-27T18:14:13.173Z,100911.51
2023-06-27T18:16:46.057Z,100923.17
2023-06-27T18:19:16.106Z,100937.56
2023-06-27T18:21:45.823Z,100937.58
2023-06-27T18:24:16.034Z,100943.21
2023-06-27T18:26:49.398Z,100950.06
2023-06-27T18:29:21.769Z,100950.89
2023-06-27T18:31:51.273Z,100960.33
2023-06-27T18:34:23.958Z,100964.20
2023-06-27T18:36:54.211Z,100981.73
2023-06-27T18:39:24.081Z,100989.23
2023-06-27T18:41:56.107Z,100994.98
2023-06-27T18:44:28.360Z,100999.09
2023-06-27T18:47:00.854Z,101004.06
2023-06-27T18:49:33.477Z,101014.80
2023-06-27T18:52:06.514Z,101016.73
2023-06-27T18:54:39.565Z,101018.98
2023-06-27T18:57:09.413Z,101021.16
2023-06-27T18:59:39.174Z,101031.41
2023-06-27T19:02:09.437Z,101046.75
2023-06-27T19:05:22.902Z,101053.14
2023-06-27T19:07:54.426Z,101056.65
2023-06-27T19:10:28.603Z,101070.03
2023-06-27T19:12:59.878Z,101086.60
2023-06-27T19:15:31.088Z,101085.02
2023-06-27T19:18:15.557Z,101091.80
2023-06-27T19:21:33.664Z,101098.02
2023-06-27T19:24:07.874Z,101116.03
2023-06-27T19:26:39.300Z,101132.67
2023-06-27T19:29:19.323Z,101143.13
2023-06-27T19:31:55.901Z,101151.29
2023-06-27T19:34:26.017Z,101160.34
2023-06-27T19:37:01.882Z,101167.63
2023-06-27T19:39:38.107Z,101181.95
2023-06-27T19:42:50.508Z,101184.98
2023-06-27T19:45:30.565Z,101187.02
2023-06-27T19:48:07.647Z,101192.19
2023-06-27T19:50:42.467Z,101209.73
2023-06-27T19:53:13.181Z,101216.48
2023-06-27T19:56:05.170Z,101222.14
2023-06-27T19:58:53.314Z,101232.77
2023-06-27T20:01:23.841Z,101220.70
2023-06-27T20:04:30.682Z,101230.23
2023-06-27T20:07:55.907Z,101246.95
2023-06-27T20:10:59.792Z,101245.30
2023-06-27T20:19:58.133Z,101274.25
2023-06-27T20:22:31.180Z,101275.84
2023-06-27T20:25:27.752Z,101273.08
2023-06-27T20:28:22.149Z,101282.36
2023-06-27T20:30:53.154Z,101292.83
2023-06-27T20:33:22.431Z,101295.23
2023-06-27T20:35:51.485Z,101289.92
2023-06-27T20:38:21.832Z,101287.09
2023-06-27T20:40:55.622Z,101297.73
2023-06-27T20:43:25.312Z,101316.55
2023-06-27T20:45:55.274Z,101323.40
2023-06-27T20:48:25.506Z,101334.48
2023-06-27T20:50:55.626Z,101352.49
2023-06-27T20:53:25.709Z,101351.79
2023-06-27T20:56:22.317Z,101353.52
2023-06-27T20:58:51.699Z,101361.46
2023-06-27T21:01:22.027Z,101363.25
2023-06-27T21:03:52.605Z,101365.46
2023-06-27T21:06:22.568Z,101372.02
2023-06-27T21:08:52.607Z,101367.53
2023-06-27T21:11:22.115Z,101360.20
2023-06-27T21:13:53.113Z,101366.30
2023-06-27T21:16:22.661Z,101375.04
2023-06-27T21:18:51.578Z,101388.90
2023-06-27T21:21:21.651Z,101403.06
2023-06-27T21:23:51.431Z,101410.05
2023-06-27T21:26:20.493Z,101405.95
2023-06-27T21:29:17.083Z,101418.30
2023-06-27T21:31:46.412Z,101436.61
2023-06-27T21:34:15.440Z,101449.95
2023-06-27T21:36:44.938Z,101465.03
2023-06-27T21:39:14.974Z,101474.40
2023-06-27T21:41:44.756Z,101478.70
2023-06-27T21:44:13.614Z,101493.85
2023-06-27T21:46:42.416Z,101513.11
2023-06-27T21:49:12.090Z,101543.61
2023-06-27T21:51:41.279Z,101554.99
2023-06-27T21:54:10.833Z,101567.16
2023-06-27T21:56:39.999Z,101574.44
2023-06-27T21:59:09.845Z,101597.63
2023-06-27T22:01:39.509Z,101609.62
2023-06-27T22:04:08.593Z,101636.71
2023-06-27T22:06:43.917Z,101646.80
2023-06-27T22:09:14.523Z,101663.36
2023-06-27T22:11:45.067Z,101673.11
2023-06-27T22:14:14.676Z,101687.39
2023-06-27T22:16:44.551Z,101698.53
2023-06-27T22:19:13.826Z,101712.33
2023-06-27T22:21:43.091Z,101725.31
2023-06-27T22:24:12.116Z,101740.16
2023-06-27T22:26:42.034Z,101753.90
2023-06-27T22:29:33.376Z,101764.52
2023-06-27T22:32:02.701Z,101770.98
2023-06-27T22:34:31.695Z,101781.14
2023-06-27T22:37:00.699Z,101789.40
2023-06-27T22:39:30.689Z,101799.20
2023-06-27T22:41:59.858Z,101806.61
2023-06-27T22:44:29.463Z,101814.88
2023-06-27T22:46:58.649Z,101819.52
2023-06-27T22:49:28.076Z,101827.44
2023-06-27T22:51:57.107Z,101831.36
2023-06-27T22:54:26.318Z,101836.70
2023-06-27T22:56:55.892Z,101844.84
2023-06-27T22:59:25.545Z,101853.86
2023-06-27T23:01:54.766Z,101864.77
2023-06-27T23:04:23.748Z,101876.15
2023-06-27T23:06:53.024Z,101879.60
2023-06-27T23:09:21.902Z,101896.62
2023-06-27T23:11:51.319Z,101905.45
2023-06-27T23:14:20.427Z,101906.75
2023-06-27T23:16:50.441Z,101917.80
2023-06-27T23:19:24.069Z,101930.77
2023-06-27T23:22:00.976Z,101948.67
2023-06-27T23:24:30.032Z,101956.13
2023-06-27T23:26:59.320Z,101965.15
2023-06-27T23:29:32.029Z,101978.54
2023-06-27T23:32:01.540Z,101991.33
2023-06-27T23:34:30.544Z,101993.85
2023-06-27T23:36:59.417Z,102003.63
2023-06-27T23:39:28.453Z,102010.28
2023-06-27T23:41:57.575Z,102009.12
2023-06-27T23:44:27.351Z,102018.05
2023-06-27T23:46:56.252Z,102019.54
2023-06-27T23:49:25.445Z,102023.59
2023-06-27T23:51:54.639Z,102029.02
2023-06-27T23:54:24.262Z,102034.45
2023-06-27T23:56:54.173Z,102059.91
2023-06-27T23:59:23.135Z,102070.38
